createdAt,value
2023-06-05T00:00:41.289Z,21.61
2023-06-05T00:03:15.042Z,21.60
2023-06-05T00:05:48.270Z,21.60
2023-06-05T00:08:23.970Z,21.58
2023-06-05T00:18:14.925Z,21.55
2023-06-05T00:20:54.988Z,21.53
2023-06-05T00:23:30.257Z,21.51
2023-06-05T00:26:04.942Z,21.50
2023-06-05T00:28:38.333Z,21.47
2023-06-05T00:31:12.972Z,21.45
2023-06-05T00:33:46.274Z,21.42
2023-06-05T00:46:36.956Z,21.35
2023-06-05T00:49:17.971Z,21.33
2023-06-05T00:51:51.857Z,21.31
2023-06-05T00:54:25.214Z,21.28
2023-06-05T00:56:58.567Z,21.24
2023-06-05T01:13:24.012Z,21.04
2023-06-05T01:15:57.634Z,21.02
2023-06-05T01:18:31.960Z,21.00
2023-06-05T01:21:11.400Z,20.98
2023-06-05T01:23:54.037Z,20.94
2023-06-05T01:26:39.254Z,20.91
2023-06-05T01:39:36.950Z,20.80
2023-06-05T01:42:19.983Z,20.77
2023-06-05T01:44:53.612Z,20.73
2023-06-05T01:47:27.016Z,20.71
2023-06-05T01:50:00.973Z,20.69
2023-06-05T01:52:35.979Z,20.67
2023-06-05T02:05:48.102Z,20.53
2023-06-05T02:08:21.302Z,20.50
2023-06-05T02:11:00.982Z,20.46
2023-06-05T02:13:34.386Z,20.43
2023-06-05T02:16:07.964Z,20.40
2023-06-05T02:18:42.312Z,20.38
2023-06-05T02:32:01.998Z,20.22
2023-06-05T02:34:41.973Z,20.19
2023-06-05T02:37:15.209Z,20.16
2023-06-05T02:39:49.041Z,20.13
2023-06-05T02:42:22.484Z,20.09
2023-06-05T02:44:55.977Z,20.07
2023-06-05T02:47:31.633Z,20.05
2023-06-05T03:00:20.978Z,19.90
2023-06-05T03:03:04.244Z,19.88
2023-06-05T03:05:38.841Z,19.85
2023-06-05T03:08:16.953Z,19.83
2023-06-05T03:10:50.795Z,19.79
2023-06-05T03:13:24.985Z,19.78
2023-06-05T03:26:36.966Z,19.67
2023-06-05T03:29:12.332Z,19.64
2023-06-05T03:31:46.982Z,19.62
2023-06-05T03:34:20.360Z,19.58
2023-06-05T03:36:53.985Z,19.56
2023-06-05T03:53:31.937Z,19.46
2023-06-05T03:56:11.998Z,19.45
2023-06-05T03:58:45.281Z,19.42
2023-06-05T04:01:18.957Z,19.38
2023-06-05T04:03:52.679Z,19.37
2023-06-05T04:06:27.180Z,19.36
2023-06-05T04:09:03.194Z,19.36
2023-06-05T04:18:57.990Z,19.36
2023-06-05T04:21:31.773Z,19.35
2023-06-05T04:24:05.086Z,19.35
2023-06-05T04:26:42.080Z,19.32
2023-06-05T04:29:21.996Z,19.31
2023-06-05T04:31:55.373Z,19.31
2023-06-05T04:48:11.982Z,19.35
2023-06-05T04:50:45.380Z,19.37
2023-06-05T04:53:19.980Z,19.38
2023-06-05T04:55:53.713Z,19.40
2023-06-05T04:58:26.982Z,19.42
2023-06-05T05:12:22.215Z,19.51
2023-06-05T05:14:57.901Z,19.51
2023-06-05T05:17:31.000Z,19.47
2023-06-05T05:20:05.738Z,19.47
2023-06-05T05:22:38.975Z,19.47
2023-06-05T05:25:12.504Z,19.47
2023-06-05T05:27:45.997Z,19.48
2023-06-05T05:40:42.986Z,19.79
2023-06-05T05:43:17.203Z,19.87
2023-06-05T05:45:51.059Z,19.97
2023-06-05T05:48:24.168Z,20.06
2023-06-05T05:51:03.958Z,20.12
2023-06-05T05:53:37.384Z,20.21
2023-06-05T06:06:27.960Z,20.56
2023-06-05T06:09:07.989Z,20.64
2023-06-05T06:11:42.733Z,20.70
2023-06-05T06:14:17.011Z,20.78
2023-06-05T06:16:50.349Z,20.86
2023-06-05T06:33:06.012Z,21.47
2023-06-05T06:35:39.271Z,21.59
2023-06-05T06:38:13.004Z,21.70
2023-06-05T06:40:46.377Z,21.82
2023-06-05T06:43:19.966Z,21.95
2023-06-05T06:45:53.725Z,22.08
2023-06-05T06:48:36.142Z,22.19
2023-06-05T07:01:52.009Z,22.95
2023-06-05T07:04:27.258Z,23.22
2023-06-05T07:07:00.997Z,23.47
2023-06-05T07:09:34.198Z,23.72
2023-06-05T07:12:08.000Z,23.90
2023-06-05T07:28:44.955Z,24.53
2023-06-05T07:31:25.015Z,24.63
2023-06-05T07:33:58.241Z,24.73
2023-06-05T07:36:31.993Z,24.78
2023-06-05T07:39:05.431Z,24.85
2023-06-05T07:41:38.977Z,24.88
2023-06-05T07:54:09.014Z,25.14
2023-06-05T07:56:42.739Z,25.21
2023-06-05T07:59:15.978Z,25.26
2023-06-05T08:01:51.823Z,25.30
2023-06-05T08:04:25.090Z,25.32
2023-06-05T08:06:58.269Z,25.31
2023-06-05T08:19:48.958Z,25.48
2023-06-05T08:22:29.257Z,25.54
2023-06-05T08:25:02.227Z,25.60
2023-06-05T08:27:37.993Z,25.63
2023-06-05T08:30:12.676Z,25.69
2023-06-05T08:32:46.030Z,25.78
2023-06-05T08:46:33.026Z,26.10
2023-06-05T08:49:11.200Z,26.16
2023-06-05T08:51:52.986Z,26.19
2023-06-05T08:54:28.661Z,26.22
2023-06-05T08:57:02.013Z,26.26
2023-06-05T08:59:35.321Z,26.28
2023-06-05T09:02:11.030Z,26.28
2023-06-05T09:15:29.082Z,26.31
2023-06-05T09:18:13.534Z,26.33
2023-06-05T09:20:54.012Z,26.33
2023-06-05T09:23:29.421Z,26.30
2023-06-05T09:26:06.259Z,26.28
2023-06-05T09:28:54.469Z,26.31
2023-06-05T09:41:53.986Z,26.38
2023-06-05T09:44:36.015Z,26.39
2023-06-05T09:47:11.252Z,26.38
2023-06-05T09:49:54.080Z,26.41
2023-06-05T09:52:27.338Z,26.45
2023-06-05T10:08:44.002Z,26.66
2023-06-05T10:11:19.593Z,26.70
2023-06-05T10:13:55.039Z,26.73
2023-06-05T10:16:30.098Z,26.77
2023-06-05T10:19:07.031Z,26.81
2023-06-05T10:21:42.363Z,26.82
2023-06-05T10:34:12.986Z,26.93
2023-06-05T10:37:33.022Z,26.97
2023-06-05T10:40:10.143Z,26.99
2023-06-05T10:42:50.025Z,27.02
2023-06-05T10:45:32.597Z,27.05
2023-06-05T10:48:13.004Z,27.07
2023-06-05T11:01:28.045Z,27.20
2023-06-05T11:04:01.445Z,27.24
2023-06-05T11:06:35.060Z,27.29
2023-06-05T11:09:14.005Z,27.34
2023-06-05T11:12:08.046Z,27.37
2023-06-05T11:28:49.981Z,27.63
2023-06-05T11:31:37.098Z,27.70
2023-06-05T11:34:14.256Z,27.76
2023-06-05T11:36:54.019Z,27.79
2023-06-05T11:39:43.678Z,27.82
2023-06-05T11:42:30.021Z,27.82
2023-06-05T11:55:43.014Z,27.66
2023-06-05T11:58:22.075Z,27.61
2023-06-05T12:01:14.288Z,27.56
2023-06-05T12:04:03.289Z,27.49
2023-06-05T12:06:49.110Z,27.46
2023-06-05T12:09:22.375Z,27.41
2023-06-05T12:22:13.992Z,27.26
2023-06-05T12:24:54.015Z,27.22
2023-06-05T12:27:30.930Z,27.17
2023-06-05T12:30:12.020Z,27.15
2023-06-05T12:32:47.386Z,27.12
2023-06-05T12:49:03.183Z,27.07
2023-06-05T12:51:36.372Z,27.06
2023-06-05T12:54:10.026Z,27.03
2023-06-05T12:56:43.250Z,27.03
2023-06-05T12:59:17.032Z,27.02
2023-06-05T13:01:50.296Z,27.02
2023-06-05T13:14:37.990Z,27.04
2023-06-05T13:17:18.060Z,27.00
2023-06-05T13:19:53.848Z,26.98
2023-06-05T13:22:27.086Z,26.99
2023-06-05T13:25:00.381Z,26.99
2023-06-05T13:27:34.005Z,26.98
2023-06-05T13:40:46.229Z,26.96
2023-06-05T13:43:19.657Z,26.94
2023-06-05T13:45:53.038Z,26.96
2023-06-05T13:48:26.482Z,26.96
2023-06-05T13:51:00.055Z,26.97
2023-06-05T13:53:33.666Z,26.98
2023-06-05T14:09:49.072Z,26.85
2023-06-05T14:12:22.339Z,26.83
2023-06-05T14:14:56.081Z,26.81
2023-06-05T14:17:29.503Z,26.78
2023-06-05T14:20:03.090Z,26.76
2023-06-05T14:22:36.306Z,26.74
2023-06-05T14:35:27.020Z,26.58
2023-06-05T14:38:07.025Z,26.57
2023-06-05T14:40:40.273Z,26.55
2023-06-05T14:43:15.080Z,26.53
2023-06-05T14:45:48.715Z,26.52
2023-06-05T14:48:22.051Z,26.50
2023-06-05T15:01:34.086Z,26.38
2023-06-05T15:04:07.422Z,26.36
2023-06-05T15:06:41.050Z,26.33
2023-06-05T15:09:14.492Z,26.30
2023-06-05T15:11:48.069Z,26.26
2023-06-05T15:14:21.473Z,26.23
2023-06-05T15:27:49.015Z,26.09
2023-06-05T15:30:29.049Z,26.06
2023-06-05T15:33:02.306Z,26.03
2023-06-05T15:35:36.061Z,26.01
2023-06-05T15:38:09.383Z,25.98
2023-06-05T15:40:43.039Z,25.96
2023-06-05T15:43:18.360Z,25.95
2023-06-05T15:56:07.019Z,25.83
2023-06-05T15:58:49.044Z,25.81
2023-06-05T16:01:22.499Z,25.80
2023-06-05T16:03:56.072Z,25.78
2023-06-05T16:06:29.317Z,25.76
2023-06-05T16:09:03.054Z,25.75
2023-06-05T16:21:59.046Z,25.70
2023-06-05T16:24:32.317Z,25.69
2023-06-05T16:27:06.101Z,25.65
2023-06-05T16:29:39.273Z,25.65
2023-06-05T16:32:14.043Z,25.64
2023-06-05T16:49:01.055Z,25.58
2023-06-05T16:51:42.052Z,25.57
2023-06-05T16:54:15.414Z,25.55
2023-06-05T16:56:49.057Z,25.55
2023-06-05T16:59:22.353Z,25.52
2023-06-05T17:01:56.060Z,25.52
2023-06-05T17:04:31.308Z,25.50
2023-06-05T17:14:40.087Z,25.45
2023-06-05T17:17:13.386Z,25.44
2023-06-05T17:19:49.117Z,25.42
2023-06-05T17:22:22.338Z,25.40
2023-06-05T17:24:56.053Z,25.40
2023-06-05T17:27:30.230Z,25.37
2023-06-05T17:43:45.071Z,25.26
2023-06-05T17:46:18.455Z,25.23
2023-06-05T17:48:52.248Z,25.21
2023-06-05T17:51:26.457Z,25.18
2023-06-05T17:54:00.341Z,25.16
2023-06-05T17:56:34.279Z,25.12
2023-06-05T17:59:10.123Z,25.09
2023-06-05T18:08:55.040Z,24.98
2023-06-05T18:11:35.057Z,24.94
2023-06-05T18:14:10.348Z,24.90
2023-06-05T18:16:44.096Z,24.87
2023-06-05T18:19:25.375Z,24.84
2023-06-05T18:22:06.228Z,24.79
2023-06-05T18:35:18.066Z,24.59
2023-06-05T18:37:51.613Z,24.56
2023-06-05T18:40:25.079Z,24.53
2023-06-05T18:42:58.319Z,24.49
2023-06-05T18:45:32.055Z,24.46
2023-06-05T18:48:05.912Z,24.43
2023-06-05T19:01:39.070Z,24.28
2023-06-05T19:04:24.079Z,24.23
2023-06-05T19:06:57.296Z,24.20
2023-06-05T19:09:31.127Z,24.18
2023-06-05T19:12:06.477Z,24.15
2023-06-05T19:14:40.062Z,24.13
2023-06-05T19:17:13.323Z,24.11
2023-06-05T19:30:04.034Z,23.98
2023-06-05T19:32:44.250Z,23.95
2023-06-05T19:35:17.885Z,23.93
2023-06-05T19:37:54.113Z,23.90
2023-06-05T19:40:27.412Z,23.88
2023-06-05T19:43:01.059Z,23.85
2023-06-05T19:56:13.066Z,23.74
2023-06-05T19:58:46.318Z,23.72
2023-06-05T20:01:20.368Z,23.70
2023-06-05T20:03:54.496Z,23.67
2023-06-05T20:06:28.106Z,23.66
2023-06-05T20:09:01.849Z,23.63
2023-06-05T20:22:04.044Z,23.52
2023-06-05T20:24:44.077Z,23.50
2023-06-05T20:27:21.412Z,23.45
2023-06-05T20:29:55.084Z,23.44
2023-06-05T20:32:28.348Z,23.43
2023-06-05T20:35:02.067Z,23.42
2023-06-05T20:37:37.409Z,23.40
2023-06-05T20:50:26.038Z,23.30
2023-06-05T20:53:08.070Z,23.28
2023-06-05T20:55:41.607Z,23.26
2023-06-05T20:58:15.082Z,23.23
2023-06-05T21:00:48.293Z,23.21
2023-06-05T21:03:23.566Z,23.21
2023-06-05T21:16:36.144Z,23.12
2023-06-05T21:19:09.348Z,23.07
2023-06-05T21:21:43.093Z,23.01
2023-06-05T21:24:16.317Z,22.95
2023-06-05T21:26:51.071Z,22.90
2023-06-05T21:29:25.189Z,22.85
2023-06-05T21:42:20.028Z,22.74
2023-06-05T21:45:00.105Z,22.71
2023-06-05T21:47:41.662Z,22.70
2023-06-05T21:50:22.098Z,22.69
2023-06-05T21:52:55.301Z,22.70
2023-06-05T21:55:29.081Z,22.69
2023-06-05T21:58:04.410Z,22.68
2023-06-05T22:10:53.056Z,22.65
2023-06-05T22:13:35.072Z,22.63
2023-06-05T22:16:08.431Z,22.62
2023-06-05T22:18:42.093Z,22.61
2023-06-05T22:21:16.997Z,22.59
2023-06-05T22:23:50.192Z,22.57
2023-06-05T22:37:02.088Z,22.47
2023-06-05T22:39:35.335Z,22.47
2023-06-05T22:42:09.110Z,22.45
2023-06-05T22:44:42.349Z,22.44
2023-06-05T22:47:16.068Z,22.43
2023-06-05T23:03:53.059Z,22.32
2023-06-05T23:06:33.075Z,22.31
2023-06-05T23:09:06.426Z,22.30
2023-06-05T23:11:41.080Z,22.25
2023-06-05T23:14:14.396Z,22.24
2023-06-05T23:16:48.098Z,22.23
2023-06-05T23:19:23.326Z,22.21
2023-06-05T23:29:19.103Z,22.15
2023-06-05T23:31:52.371Z,22.13
2023-06-05T23:34:26.108Z,22.12
2023-06-05T23:37:01.342Z,22.10
2023-06-05T23:39:35.066Z,22.10
2023-06-05T23:42:16.458Z,22.08
2023-06-05T23:55:57.059Z,22.03
2023-06-05T23:58:39.085Z,22.01
